NE16 weather

Gothenburg Memorial Hospital Heliport
Gothenburg, Nebraska, United States

Public forecast

Using degrees Fahrenheit for public forecast. Weather courtesy of forecast.io.

Closest aviation weather report (METAR) to Gothenburg Memorial Hospital Heliport

Closest report is Jim Kelly Field, 19.3 nm (35.8 km) ESE. Retrieved 2019/10/21 09:35 UTC (3 minutes ago):

KLXN 210935Z AUTO 31034G42KT 10SM OVC029 06/01 A2956 RMK AO2 T00560009

Closest aviation forecast (TAF) to Gothenburg Memorial Hospital Heliport

Closest forecast is North Platte Regional Airport Lee Bird Field, 26.5 nm (49.0 km) WNW. Retrieved 2019/10/21 06:30 UTC (3 hours ago):

TAF KLBF 210528Z 2106/2206 33026G42KT P6SM OVC023 FM210800 31024G34KT P6SM BKN035 WS020/32055KT FM211400 31026G36KT P6SM SCT070 FM220000 32016KT P6SM FEW250 FM220400 30006KT P6SM FEW250 WS020/33040KT